createdAt,value
2023-03-06T00:00:04.344Z,9.33
2023-03-06T00:00:33.782Z,9.33
2023-03-06T00:01:06.241Z,9.33
2023-03-06T00:01:37.880Z,9.33
2023-03-06T00:02:10.072Z,9.33
2023-03-06T00:02:36.512Z,9.33
2023-03-06T00:02:57.945Z,9.33
2023-03-06T00:03:29.795Z,9.33
2023-03-06T00:04:02.680Z,9.33
2023-03-06T00:04:34.001Z,9.33
2023-03-06T00:05:06.892Z,9.33
2023-03-06T00:05:37.908Z,9.33
2023-03-06T00:06:10.117Z,9.33
2023-03-06T00:06:36.857Z,9.33
2023-03-06T00:06:57.933Z,9.33
2023-03-06T00:07:30.189Z,9.33
2023-03-06T00:08:02.655Z,9.33
2023-03-06T00:08:33.769Z,9.33
2023-03-06T00:09:05.904Z,9.49
2023-03-06T00:09:37.768Z,9.49
2023-03-06T00:10:10.394Z,9.49
2023-03-06T00:10:36.493Z,9.49
2023-03-06T00:10:58.258Z,9.65
2023-03-06T00:11:29.817Z,9.65
2023-03-06T00:12:02.526Z,9.65
2023-03-06T00:12:33.745Z,9.89
2023-03-06T00:13:05.890Z,9.89
2023-03-06T00:13:37.880Z,9.89
2023-03-06T00:14:09.939Z,9.89
2023-03-06T00:14:36.672Z,9.89
2023-03-06T00:14:58.305Z,9.89
2023-03-06T00:15:30.684Z,9.89
2023-03-06T00:16:02.734Z,9.49
2023-03-06T00:16:33.794Z,9.49
2023-03-06T00:17:05.927Z,9.49
2023-03-06T00:17:37.780Z,9.89
2023-03-06T00:18:09.892Z,9.89
2023-03-06T00:18:36.591Z,9.49
2023-03-06T00:18:58.190Z,9.33
2023-03-06T00:19:30.076Z,9.33
2023-03-06T00:20:03.647Z,9.33
2023-03-06T00:20:33.867Z,9.33
2023-03-06T00:21:05.908Z,9.33
2023-03-06T00:21:37.759Z,9.33
2023-03-06T00:22:09.903Z,9.33
2023-03-06T00:22:36.471Z,9.33
2023-03-06T00:22:57.930Z,9.33
2023-03-06T00:23:31.099Z,9.49
2023-03-06T00:24:02.588Z,9.49
2023-03-06T00:24:34.059Z,9.89
2023-03-06T00:25:06.914Z,10.13
2023-03-06T00:25:39.491Z,10.30
2023-03-06T00:26:09.894Z,10.46
2023-03-06T00:26:36.504Z,10.46
2023-03-06T00:26:57.980Z,10.46
2023-03-06T00:27:30.562Z,10.30
2023-03-06T00:28:02.614Z,10.30
2023-03-06T00:28:33.724Z,10.30
2023-03-06T00:29:06.078Z,10.30
2023-03-06T00:29:37.824Z,10.30
2023-03-06T00:30:10.786Z,9.89
2023-03-06T00:30:36.517Z,9.65
2023-03-06T00:30:58.966Z,9.49
2023-03-06T00:31:30.593Z,9.33
2023-03-06T00:32:02.576Z,9.33
2023-03-06T00:32:34.008Z,9.33
2023-03-06T00:33:06.147Z,9.33
2023-03-06T00:33:37.802Z,9.33
2023-03-06T00:34:09.923Z,9.33
2023-03-06T00:34:36.478Z,9.33
2023-03-06T00:34:57.947Z,9.33
2023-03-06T00:35:30.343Z,9.17
2023-03-06T00:36:05.059Z,8.85
2023-03-06T00:36:34.542Z,8.69
2023-03-06T00:37:05.996Z,8.69
2023-03-06T00:37:37.831Z,8.69
2023-03-06T00:38:09.870Z,8.69
2023-03-06T00:38:36.523Z,8.45
2023-03-06T00:38:57.902Z,8.45
2023-03-06T00:39:29.968Z,8.69
2023-03-06T00:40:03.735Z,8.69
2023-03-06T00:40:35.597Z,8.69
2023-03-06T00:41:06.094Z,8.69
2023-03-06T00:41:37.907Z,8.69
2023-03-06T00:42:09.959Z,8.69
2023-03-06T00:42:36.500Z,8.69
2023-03-06T00:42:57.914Z,8.69
2023-03-06T00:43:29.925Z,8.45
2023-03-06T00:44:02.469Z,8.69
2023-03-06T00:44:36.428Z,8.69
2023-03-06T00:45:07.508Z,8.69
2023-03-06T00:45:37.904Z,8.69
2023-03-06T00:46:09.986Z,8.69
2023-03-06T00:46:36.623Z,8.85
2023-03-06T00:46:57.951Z,8.85
2023-03-06T00:47:29.786Z,8.85
2023-03-06T00:48:02.731Z,8.85
2023-03-06T00:48:34.290Z,9.01
2023-03-06T00:49:06.038Z,9.01
2023-03-06T00:49:38.052Z,8.85
2023-03-06T00:50:10.252Z,8.69
2023-03-06T00:50:36.872Z,8.45
2023-03-06T00:50:58.309Z,8.20
2023-03-06T00:51:29.868Z,8.20
2023-03-06T00:52:02.681Z,8.04
2023-03-06T00:52:33.834Z,7.88
2023-03-06T00:53:05.859Z,7.88
2023-03-06T00:53:38.303Z,7.88
2023-03-06T00:54:09.857Z,7.72
2023-03-06T00:54:36.449Z,7.40
2023-03-06T00:54:57.920Z,7.24
2023-03-06T00:55:30.316Z,7.24
2023-03-06T00:56:02.599Z,7.24
2023-03-06T00:56:33.807Z,7.24
2023-03-06T00:57:05.867Z,7.24
2023-03-06T00:57:38.293Z,7.24
2023-03-06T00:58:09.993Z,7.24
2023-03-06T00:58:36.463Z,7.24
2023-03-06T00:58:57.986Z,7.24
2023-03-06T00:59:29.850Z,7.24
2023-03-06T01:00:04.336Z,7.24
2023-03-06T01:00:33.897Z,7.24
2023-03-06T01:01:06.395Z,7.24
2023-03-06T01:01:37.778Z,7.24
2023-03-06T01:02:09.932Z,7.24
2023-03-06T01:02:36.553Z,7.24
2023-03-06T01:02:58.003Z,7.24
2023-03-06T01:03:29.948Z,7.24
2023-03-06T01:04:02.454Z,7.24
2023-03-06T01:04:33.740Z,7.24
2023-03-06T01:05:06.858Z,7.24
2023-03-06T01:05:37.908Z,7.24
2023-03-06T01:06:09.923Z,7.24
2023-03-06T01:06:36.489Z,7.24
2023-03-06T01:06:57.938Z,7.24
2023-03-06T01:07:29.912Z,7.24
2023-03-06T01:08:02.558Z,7.24
2023-03-06T01:08:35.137Z,7.24
2023-03-06T01:09:05.903Z,7.24
2023-03-06T01:09:37.860Z,7.24
2023-03-06T01:10:10.283Z,7.24
2023-03-06T01:10:36.736Z,7.24
2023-03-06T01:10:58.309Z,7.08
2023-03-06T01:11:29.808Z,7.08
2023-03-06T01:12:02.537Z,6.68
2023-03-06T01:12:33.768Z,6.68
2023-03-06T01:13:05.948Z,6.43
2023-03-06T01:13:37.798Z,6.43
2023-03-06T01:14:09.886Z,6.43
2023-03-06T01:14:36.585Z,6.84
2023-03-06T01:14:57.991Z,6.84
2023-03-06T01:15:30.726Z,6.84
2023-03-06T01:16:02.674Z,6.84
2023-03-06T01:16:33.892Z,6.84
2023-03-06T01:17:05.967Z,6.84
2023-03-06T01:17:41.402Z,6.84
2023-03-06T01:18:09.849Z,6.84
2023-03-06T01:18:36.415Z,6.84
2023-03-06T01:18:58.172Z,6.84
2023-03-06T01:19:30.136Z,7.24
2023-03-06T01:20:03.539Z,7.24
2023-03-06T01:20:33.939Z,7.24
2023-03-06T01:21:05.971Z,7.40
2023-03-06T01:21:37.922Z,7.40
2023-03-06T01:22:09.888Z,7.40
2023-03-06T01:22:36.522Z,7.56
2023-03-06T01:22:57.944Z,7.56
2023-03-06T01:23:30.138Z,7.56
2023-03-06T01:24:02.416Z,7.56
2023-03-06T01:24:33.798Z,7.72
2023-03-06T01:25:06.642Z,7.72
2023-03-06T01:25:37.932Z,7.88
2023-03-06T01:26:09.905Z,7.72
2023-03-06T01:26:36.527Z,7.56
2023-03-06T01:26:58.036Z,7.72
2023-03-06T01:27:30.056Z,7.72
2023-03-06T01:28:02.878Z,7.88
2023-03-06T01:28:33.994Z,7.88
2023-03-06T01:29:05.919Z,7.72
2023-03-06T01:29:37.944Z,7.72
2023-03-06T01:30:10.796Z,7.72
2023-03-06T01:30:36.678Z,7.72
2023-03-06T01:30:58.386Z,7.72
2023-03-06T01:31:30.006Z,7.88
2023-03-06T01:32:02.685Z,7.88
2023-03-06T01:32:33.888Z,7.88
2023-03-06T01:33:05.946Z,7.88
2023-03-06T01:33:37.907Z,8.29
2023-03-06T01:34:10.047Z,8.29
2023-03-06T01:34:36.542Z,7.88
2023-03-06T01:34:57.920Z,7.88
2023-03-06T01:35:30.422Z,7.88
2023-03-06T01:36:02.503Z,7.88
2023-03-06T01:36:34.636Z,8.29
2023-03-06T01:37:06.069Z,7.88
2023-03-06T01:37:37.873Z,7.88
2023-03-06T01:38:09.999Z,7.88
2023-03-06T01:38:36.491Z,7.72
2023-03-06T01:38:58.076Z,7.72
2023-03-06T01:39:29.888Z,7.56
2023-03-06T01:40:03.892Z,7.56
2023-03-06T01:40:33.798Z,7.40
2023-03-06T01:41:05.946Z,7.24
2023-03-06T01:41:37.891Z,7.24
2023-03-06T01:42:09.943Z,7.24
2023-03-06T01:42:36.933Z,7.24
2023-03-06T01:42:58.421Z,7.08
2023-03-06T01:43:30.030Z,6.68
2023-03-06T01:44:02.504Z,6.43
2023-03-06T01:44:33.838Z,6.27
2023-03-06T01:45:07.238Z,6.27
2023-03-06T01:45:38.267Z,6.11
2023-03-06T01:46:09.942Z,6.11
2023-03-06T01:46:36.585Z,6.11
2023-03-06T01:46:58.341Z,5.95
2023-03-06T01:47:29.964Z,5.79
2023-03-06T01:48:02.550Z,5.79
2023-03-06T01:48:33.723Z,5.79
2023-03-06T01:49:06.005Z,5.79
2023-03-06T01:49:37.875Z,5.63
2023-03-06T01:50:10.380Z,5.63
2023-03-06T01:50:36.491Z,5.79
2023-03-06T01:50:58.351Z,5.79
2023-03-06T01:51:30.075Z,5.63
2023-03-06T01:52:02.868Z,5.47
2023-03-06T01:52:33.827Z,5.47
2023-03-06T01:53:06.062Z,5.47
2023-03-06T01:53:22.766Z,5.47
2023-03-06T01:53:43.510Z,5.47
2023-03-06T01:54:10.012Z,5.47
2023-03-06T01:54:36.489Z,5.47
2023-03-06T01:54:57.958Z,5.47
2023-03-06T01:55:30.389Z,5.47
2023-03-06T01:56:02.474Z,5.47
2023-03-06T01:56:33.862Z,5.47
2023-03-06T01:57:06.233Z,5.47
2023-03-06T01:57:38.363Z,5.47
2023-03-06T01:58:09.926Z,5.47
2023-03-06T01:58:36.490Z,5.47
2023-03-06T01:58:58.080Z,5.47
2023-03-06T01:59:29.892Z,5.47
2023-03-06T02:00:04.407Z,5.47
2023-03-06T02:00:33.867Z,5.47
2023-03-06T02:01:06.925Z,5.47
2023-03-06T02:01:37.819Z,5.47
2023-03-06T02:02:10.232Z,5.47
2023-03-06T02:02:36.608Z,5.47
2023-03-06T02:02:58.043Z,5.47
2023-03-06T02:03:29.918Z,5.47
2023-03-06T02:04:02.444Z,5.47
2023-03-06T02:04:33.817Z,5.47
2023-03-06T02:05:06.869Z,5.47
2023-03-06T02:05:37.845Z,5.47
2023-03-06T02:06:10.489Z,5.47
2023-03-06T02:06:36.541Z,5.47
2023-03-06T02:06:58.425Z,5.47
2023-03-06T02:07:29.873Z,5.47
2023-03-06T02:08:02.549Z,5.47
2023-03-06T02:08:33.933Z,5.47
2023-03-06T02:09:06.229Z,5.47
2023-03-06T02:09:38.233Z,5.47
2023-03-06T02:10:10.777Z,5.47
2023-03-06T02:10:36.554Z,5.47
2023-03-06T02:10:58.359Z,5.63
2023-03-06T02:11:36.640Z,5.63
2023-03-06T02:12:02.552Z,5.63
2023-03-06T02:12:33.851Z,5.79
2023-03-06T02:13:06.273Z,5.79
2023-03-06T02:13:37.784Z,5.79
2023-03-06T02:14:10.052Z,5.63
2023-03-06T02:14:36.844Z,5.63
2023-03-06T02:14:57.971Z,5.63
2023-03-06T02:15:30.723Z,5.95
2023-03-06T02:16:02.526Z,5.63
2023-03-06T02:16:33.872Z,5.95
2023-03-06T02:17:06.010Z,5.63
2023-03-06T02:17:37.879Z,5.63
2023-03-06T02:18:10.141Z,5.95
2023-03-06T02:18:36.501Z,6.11
2023-03-06T02:18:58.059Z,6.11
2023-03-06T02:19:30.103Z,6.11
2023-03-06T02:20:04.057Z,6.11
2023-03-06T02:20:33.810Z,6.11
2023-03-06T02:21:05.958Z,6.11
2023-03-06T02:21:38.383Z,6.11
2023-03-06T02:22:10.097Z,6.11
2023-03-06T02:22:36.581Z,6.11
2023-03-06T02:22:58.076Z,6.11
2023-03-06T02:23:29.974Z,6.11
2023-03-06T02:24:02.531Z,6.11
2023-03-06T02:24:33.787Z,6.11
2023-03-06T02:25:06.941Z,6.11
2023-03-06T02:25:37.989Z,6.11
2023-03-06T02:26:10.165Z,6.11
2023-03-06T02:26:36.540Z,6.11
2023-03-06T02:26:58.204Z,6.11
2023-03-06T02:27:30.129Z,6.11
2023-03-06T02:28:02.786Z,6.11
2023-03-06T02:28:33.953Z,6.11
2023-03-06T02:29:06.106Z,6.11
2023-03-06T02:29:37.828Z,6.11
2023-03-06T02:30:09.428Z,6.11
2023-03-06T02:30:36.225Z,6.11
2023-03-06T02:30:58.163Z,6.11
2023-03-06T02:31:29.281Z,6.11
2023-03-06T02:32:01.548Z,6.11
2023-03-06T02:32:33.514Z,6.11
2023-03-06T02:33:06.746Z,6.11
2023-03-06T02:33:37.176Z,6.11
2023-03-06T02:34:09.158Z,6.11
2023-03-06T02:34:35.345Z,6.11
2023-03-06T02:34:57.174Z,6.11
2023-03-06T02:35:29.445Z,5.95
2023-03-06T02:36:01.847Z,5.79
2023-03-06T02:36:33.306Z,5.79
2023-03-06T02:37:04.893Z,5.79
2023-03-06T02:37:36.849Z,5.79
2023-03-06T02:38:09.269Z,5.79
2023-03-06T02:38:35.838Z,5.79
2023-03-06T02:38:59.088Z,5.79
2023-03-06T02:39:29.228Z,5.79
2023-03-06T02:40:01.694Z,5.63
2023-03-06T02:40:33.073Z,5.47
2023-03-06T02:41:04.978Z,5.47
2023-03-06T02:41:37.832Z,5.47
2023-03-06T02:42:10.149Z,5.47
2023-03-06T02:42:35.735Z,5.47
2023-03-06T02:42:57.189Z,5.47
2023-03-06T02:43:30.898Z,5.47
2023-03-06T02:44:01.702Z,5.47
2023-03-06T02:44:33.102Z,5.47
2023-03-06T02:45:06.054Z,5.47
2023-03-06T02:45:37.228Z,5.47
2023-03-06T02:46:08.851Z,5.47
2023-03-06T02:46:35.681Z,5.47
2023-03-06T02:46:57.055Z,5.47
2023-03-06T02:47:29.331Z,5.47
2023-03-06T02:48:01.518Z,5.47
2023-03-06T02:48:32.672Z,5.47
2023-03-06T02:49:05.066Z,5.47
2023-03-06T02:49:37.436Z,5.47
2023-03-06T02:50:09.519Z,5.47
2023-03-06T02:50:35.761Z,5.47
2023-03-06T02:50:57.620Z,5.47
2023-03-06T02:51:29.170Z,5.47
2023-03-06T02:52:05.007Z,5.47
2023-03-06T02:52:35.085Z,5.47
2023-03-06T02:53:07.096Z,5.47
2023-03-06T02:53:23.533Z,5.47
2023-03-06T02:53:43.687Z,5.47
2023-03-06T02:54:09.868Z,5.47
2023-03-06T02:54:36.472Z,5.47
2023-03-06T02:54:58.175Z,5.47
2023-03-06T02:55:30.425Z,5.47
2023-03-06T02:56:02.437Z,5.47
2023-03-06T02:56:34.231Z,5.47
2023-03-06T02:57:06.526Z,5.47
2023-03-06T02:57:38.135Z,5.47
2023-03-06T02:58:10.048Z,5.47
2023-03-06T02:58:36.928Z,5.47
2023-03-06T02:58:58.233Z,5.47
2023-03-06T02:59:30.173Z,5.47
2023-03-06T03:00:05.065Z,5.47
2023-03-06T03:00:34.343Z,5.47
2023-03-06T03:01:06.782Z,5.47
2023-03-06T03:01:38.411Z,5.47
2023-03-06T03:02:09.972Z,5.47
2023-03-06T03:02:36.533Z,5.47
2023-03-06T03:02:58.038Z,5.47
2023-03-06T03:03:30.001Z,5.47
2023-03-06T03:04:02.521Z,5.63
2023-03-06T03:04:34.272Z,5.63
2023-03-06T03:05:06.889Z,5.79
2023-03-06T03:05:37.965Z,5.79
2023-03-06T03:06:09.921Z,5.79
2023-03-06T03:06:36.541Z,5.79
2023-03-06T03:06:58.024Z,5.79
2023-03-06T03:07:30.006Z,5.95
2023-03-06T03:08:02.492Z,6.11
2023-03-06T03:08:34.216Z,6.11
2023-03-06T03:09:06.140Z,6.11
2023-03-06T03:09:38.037Z,6.11
2023-03-06T03:10:10.387Z,6.11
2023-03-06T03:10:36.962Z,6.11
2023-03-06T03:10:58.404Z,6.11
2023-03-06T03:11:30.016Z,5.95
2023-03-06T03:12:02.925Z,6.11
2023-03-06T03:12:34.216Z,6.11
2023-03-06T03:13:06.111Z,6.11
2023-03-06T03:13:38.045Z,6.11
2023-03-06T03:14:09.874Z,6.27
2023-03-06T03:14:36.541Z,6.43
2023-03-06T03:14:57.989Z,6.43
2023-03-06T03:15:30.865Z,6.68
2023-03-06T03:16:02.948Z,6.84
2023-03-06T03:16:34.126Z,7.40
2023-03-06T03:17:06.152Z,7.40
2023-03-06T03:17:22.715Z,7.40
2023-03-06T03:17:43.612Z,7.40
2023-03-06T03:18:09.896Z,7.40
2023-03-06T03:18:36.772Z,7.40
2023-03-06T03:18:58.005Z,7.40
2023-03-06T03:19:30.043Z,7.40
2023-03-06T03:20:03.908Z,7.40
2023-03-06T03:20:34.110Z,7.40
2023-03-06T03:21:06.075Z,7.40
2023-03-06T03:21:23.023Z,6.84
2023-03-06T03:21:43.486Z,6.43
2023-03-06T03:22:09.952Z,6.43
2023-03-06T03:22:36.589Z,6.11
2023-03-06T03:22:58.085Z,5.79
2023-03-06T03:23:30.400Z,5.63
2023-03-06T03:24:02.527Z,5.63
2023-03-06T03:24:34.150Z,5.63
2023-03-06T03:25:06.961Z,5.47
2023-03-06T03:25:22.872Z,5.23
2023-03-06T03:25:43.859Z,4.98
2023-03-06T03:26:09.857Z,4.98
2023-03-06T03:26:36.901Z,4.98
2023-03-06T03:26:58.009Z,4.98
2023-03-06T03:27:29.941Z,4.98
2023-03-06T03:28:02.491Z,4.82
2023-03-06T03:28:34.115Z,4.82
2023-03-06T03:29:06.174Z,4.98
2023-03-06T03:29:22.781Z,4.98
2023-03-06T03:29:43.520Z,4.98
2023-03-06T03:30:10.820Z,4.98
2023-03-06T03:30:36.593Z,4.98
2023-03-06T03:30:58.612Z,4.98
2023-03-06T03:31:29.992Z,4.98
2023-03-06T03:32:02.447Z,5.23
2023-03-06T03:32:34.663Z,5.47
2023-03-06T03:33:06.128Z,5.23
2023-03-06T03:33:22.771Z,5.23
2023-03-06T03:33:43.708Z,5.23
2023-03-06T03:34:10.020Z,5.47
2023-03-06T03:34:36.619Z,5.47
2023-03-06T03:34:58.057Z,5.47
2023-03-06T03:35:37.276Z,5.47
2023-03-06T03:36:02.574Z,5.47
2023-03-06T03:36:34.063Z,5.47
2023-03-06T03:37:06.113Z,5.47
2023-03-06T03:37:22.726Z,5.47
2023-03-06T03:37:43.556Z,5.23
2023-03-06T03:38:09.957Z,5.23
2023-03-06T03:38:36.907Z,5.06
2023-03-06T03:38:58.106Z,5.06
2023-03-06T03:39:30.088Z,5.06
2023-03-06T03:40:03.892Z,4.66
2023-03-06T03:40:34.034Z,5.06
2023-03-06T03:41:06.117Z,5.06
2023-03-06T03:41:22.774Z,5.06
2023-03-06T03:41:43.544Z,5.47
2023-03-06T03:42:10.052Z,5.47
2023-03-06T03:42:36.963Z,5.23
2023-03-06T03:42:58.077Z,4.82
2023-03-06T03:43:30.077Z,4.66
2023-03-06T03:44:02.488Z,4.82
2023-03-06T03:44:34.122Z,4.82
2023-03-06T03:45:07.573Z,4.98
2023-03-06T03:45:22.844Z,4.98
2023-03-06T03:45:44.076Z,4.98
2023-03-06T03:46:10.053Z,5.23
2023-03-06T03:46:36.592Z,5.47
2023-03-06T03:46:58.080Z,5.47
2023-03-06T03:47:30.111Z,5.47
2023-03-06T03:48:02.592Z,5.47
2023-03-06T03:48:34.111Z,5.47
2023-03-06T03:49:06.164Z,5.47
2023-03-06T03:49:22.827Z,5.47
2023-03-06T03:49:43.974Z,5.47
2023-03-06T03:50:10.315Z,5.47
2023-03-06T03:50:36.577Z,5.47
2023-03-06T03:50:58.449Z,5.47
2023-03-06T03:51:30.168Z,5.47
2023-03-06T03:52:02.515Z,5.47
2023-03-06T03:52:34.082Z,5.47
2023-03-06T03:53:06.133Z,5.63
2023-03-06T03:53:22.938Z,5.63
2023-03-06T03:53:43.654Z,5.79
2023-03-06T03:54:10.260Z,5.79
2023-03-06T03:54:36.597Z,5.79
2023-03-06T03:54:58.187Z,5.79
2023-03-06T03:55:30.480Z,5.79
2023-03-06T03:56:02.467Z,5.79
2023-03-06T03:56:34.050Z,5.79
2023-03-06T03:57:06.329Z,5.79
2023-03-06T03:57:22.832Z,5.79
2023-03-06T03:57:43.436Z,5.79
2023-03-06T03:58:10.185Z,5.79
2023-03-06T03:58:36.546Z,5.79
2023-03-06T03:58:58.092Z,5.79
2023-03-06T03:59:30.140Z,5.79
2023-03-06T04:00:04.603Z,5.79
2023-03-06T04:00:34.138Z,5.79
2023-03-06T04:01:06.467Z,5.79
2023-03-06T04:01:22.691Z,5.79
2023-03-06T04:01:43.542Z,5.79
2023-03-06T04:02:10.047Z,5.79
2023-03-06T04:02:36.531Z,5.79
2023-03-06T04:02:58.104Z,5.79
2023-03-06T04:03:30.130Z,5.79
2023-03-06T04:04:02.961Z,5.79
2023-03-06T04:04:34.427Z,5.79
2023-03-06T04:05:07.179Z,5.79
2023-03-06T04:05:22.796Z,5.63
2023-03-06T04:05:44.069Z,5.63
2023-03-06T04:06:09.956Z,5.63
2023-03-06T04:06:36.936Z,5.63
2023-03-06T04:06:58.064Z,5.47
2023-03-06T04:07:30.015Z,5.47
2023-03-06T04:08:02.679Z,5.47
2023-03-06T04:08:34.213Z,5.47
2023-03-06T04:09:06.377Z,5.47
2023-03-06T04:09:22.833Z,5.47
2023-03-06T04:09:43.537Z,5.47
2023-03-06T04:10:11.671Z,5.47
2023-03-06T04:10:36.898Z,5.47
2023-03-06T04:10:58.683Z,5.47
2023-03-06T04:11:30.587Z,5.47
2023-03-06T04:12:02.439Z,5.47
2023-03-06T04:12:34.138Z,5.23
2023-03-06T04:13:08.785Z,4.98
2023-03-06T04:13:22.803Z,4.98
2023-03-06T04:13:43.592Z,4.98
2023-03-06T04:14:09.970Z,4.98
2023-03-06T04:14:36.616Z,4.98
2023-03-06T04:14:58.155Z,4.98
2023-03-06T04:15:30.857Z,4.98
2023-03-06T04:16:02.680Z,4.98
2023-03-06T04:16:34.227Z,4.98
2023-03-06T04:17:06.249Z,5.23
2023-03-06T04:17:22.802Z,5.23
2023-03-06T04:17:43.795Z,5.23
2023-03-06T04:18:09.986Z,5.23
2023-03-06T04:18:37.029Z,5.47
2023-03-06T04:18:58.673Z,5.47
2023-03-06T04:19:30.120Z,5.79
2023-03-06T04:20:04.072Z,6.11
2023-03-06T04:20:34.165Z,6.11
2023-03-06T04:21:06.271Z,6.11
2023-03-06T04:21:22.814Z,6.11
2023-03-06T04:21:43.913Z,6.27
2023-03-06T04:22:10.064Z,6.27
2023-03-06T04:22:36.653Z,6.27
2023-03-06T04:22:58.678Z,6.43
2023-03-06T04:23:30.093Z,6.43
2023-03-06T04:24:02.520Z,6.43
2023-03-06T04:24:34.128Z,6.43
2023-03-06T04:25:07.179Z,6.43
2023-03-06T04:25:22.788Z,6.43
2023-03-06T04:25:43.780Z,6.43
2023-03-06T04:26:10.148Z,6.43
2023-03-06T04:26:36.554Z,6.43
2023-03-06T04:26:58.234Z,6.27
2023-03-06T04:27:30.092Z,6.11
2023-03-06T04:28:02.893Z,5.79
2023-03-06T04:28:34.220Z,5.47
2023-03-06T04:29:06.282Z,5.47
2023-03-06T04:29:22.742Z,5.23
2023-03-06T04:29:43.488Z,4.82
2023-03-06T04:30:10.899Z,4.66
2023-03-06T04:30:36.654Z,4.66
2023-03-06T04:30:58.781Z,4.34
2023-03-06T04:31:30.080Z,4.02
2023-03-06T04:32:03.202Z,4.02
2023-03-06T04:32:34.123Z,4.02
2023-03-06T04:33:06.523Z,3.78
2023-03-06T04:33:22.875Z,3.78
2023-03-06T04:33:43.516Z,3.54
2023-03-06T04:34:10.135Z,3.54
2023-03-06T04:34:36.599Z,3.54
2023-03-06T04:34:58.134Z,3.54
2023-03-06T04:35:30.581Z,3.38
2023-03-06T04:36:02.677Z,3.38
2023-03-06T04:36:34.182Z,3.38
2023-03-06T04:37:06.671Z,3.38
2023-03-06T04:37:22.847Z,3.38
2023-03-06T04:37:43.568Z,3.38
2023-03-06T04:38:10.018Z,3.22
2023-03-06T04:38:36.645Z,3.22
2023-03-06T04:38:58.159Z,3.54
2023-03-06T04:39:30.021Z,3.54
2023-03-06T04:40:04.115Z,3.78
2023-03-06T04:40:34.312Z,3.78
2023-03-06T04:41:06.415Z,4.02
2023-03-06T04:41:22.795Z,4.18
2023-03-06T04:41:43.443Z,4.34
2023-03-06T04:42:10.104Z,4.18
2023-03-06T04:42:36.967Z,4.18
2023-03-06T04:42:58.141Z,4.18
2023-03-06T04:43:30.063Z,4.18
2023-03-06T04:44:02.662Z,4.34
2023-03-06T04:44:34.175Z,4.50
2023-03-06T04:45:07.747Z,4.82
2023-03-06T04:45:22.857Z,5.23
2023-03-06T04:45:44.192Z,5.47
2023-03-06T04:46:10.245Z,5.47
2023-03-06T04:46:36.615Z,5.47
2023-03-06T04:46:58.096Z,5.47
2023-03-06T04:47:30.009Z,5.47
2023-03-06T04:48:02.547Z,5.47
2023-03-06T04:48:34.135Z,5.47
2023-03-06T04:49:06.172Z,5.47
2023-03-06T04:49:23.011Z,5.47
2023-03-06T04:49:43.546Z,5.47
2023-03-06T04:50:10.453Z,5.47
2023-03-06T04:50:36.621Z,5.23
2023-03-06T04:50:58.549Z,5.23
2023-03-06T04:51:30.235Z,5.23
2023-03-06T04:52:02.514Z,4.66
2023-03-06T04:52:34.206Z,4.82
2023-03-06T04:53:06.241Z,4.82
2023-03-06T04:53:22.945Z,4.66
2023-03-06T04:53:43.464Z,4.50
2023-03-06T04:54:10.338Z,4.50
2023-03-06T04:54:36.733Z,4.18
2023-03-06T04:54:58.260Z,3.78
2023-03-06T04:55:30.560Z,3.78
2023-03-06T04:56:03.087Z,3.78
2023-03-06T04:56:34.155Z,4.34
2023-03-06T04:57:06.359Z,4.34
2023-03-06T04:57:23.114Z,4.66
2023-03-06T04:57:43.575Z,4.66
2023-03-06T04:58:10.033Z,4.66
2023-03-06T04:58:36.656Z,4.66
2023-03-06T04:58:58.174Z,4.66
2023-03-06T04:59:30.071Z,4.82
2023-03-06T05:00:04.478Z,5.23
2023-03-06T05:00:34.225Z,5.47
2023-03-06T05:01:06.573Z,5.47
2023-03-06T05:01:22.873Z,5.47
2023-03-06T05:01:43.470Z,5.47
2023-03-06T05:02:10.017Z,5.47
2023-03-06T05:02:36.725Z,5.47
2023-03-06T05:02:58.113Z,5.47
2023-03-06T05:03:30.171Z,5.47
2023-03-06T05:04:02.551Z,5.47
2023-03-06T05:04:34.275Z,5.47
2023-03-06T05:05:07.473Z,5.47
2023-03-06T05:05:22.939Z,5.47
2023-03-06T05:05:44.018Z,5.63
2023-03-06T05:06:09.979Z,5.63
2023-03-06T05:06:36.782Z,5.47
2023-03-06T05:06:58.273Z,5.47
2023-03-06T05:07:30.075Z,5.47
2023-03-06T05:08:02.795Z,5.47
2023-03-06T05:08:34.305Z,5.47
2023-03-06T05:09:06.241Z,5.63
2023-03-06T05:09:23.470Z,5.63
2023-03-06T05:09:43.608Z,5.63
2023-03-06T05:10:10.473Z,5.63
2023-03-06T05:10:37.053Z,5.79
2023-03-06T05:10:58.776Z,5.95
2023-03-06T05:11:30.161Z,6.27
2023-03-06T05:12:02.473Z,6.27
2023-03-06T05:12:34.258Z,6.43
2023-03-06T05:13:06.263Z,6.43
2023-03-06T05:13:22.926Z,6.68
2023-03-06T05:13:43.571Z,6.68
2023-03-06T05:14:10.135Z,6.68
2023-03-06T05:14:36.774Z,6.92
2023-03-06T05:14:58.134Z,7.08
2023-03-06T05:15:30.889Z,7.08
2023-03-06T05:16:02.653Z,7.24
2023-03-06T05:16:34.207Z,7.24
2023-03-06T05:17:06.300Z,7.24
2023-03-06T05:17:22.931Z,7.24
2023-03-06T05:17:43.628Z,7.24
2023-03-06T05:18:10.022Z,7.24
2023-03-06T05:18:36.680Z,7.24
2023-03-06T05:18:58.490Z,7.24
2023-03-06T05:19:30.019Z,7.24
2023-03-06T05:20:04.017Z,7.24
2023-03-06T05:20:34.269Z,7.24
2023-03-06T05:21:06.114Z,7.24
2023-03-06T05:21:22.792Z,7.24
2023-03-06T05:21:43.452Z,7.24
2023-03-06T05:22:10.001Z,7.24
2023-03-06T05:22:36.624Z,7.24
2023-03-06T05:22:58.146Z,7.24
2023-03-06T05:23:30.210Z,7.24
2023-03-06T05:24:02.469Z,7.24
2023-03-06T05:24:34.279Z,7.24
2023-03-06T05:25:07.093Z,7.24
2023-03-06T05:25:22.931Z,7.24
2023-03-06T05:25:43.983Z,7.24
2023-03-06T05:26:09.998Z,7.24
2023-03-06T05:26:37.195Z,7.24
2023-03-06T05:26:58.261Z,7.24
2023-03-06T05:27:30.527Z,7.24
2023-03-06T05:28:02.585Z,7.24
2023-03-06T05:28:34.224Z,7.08
2023-03-06T05:29:06.283Z,6.68
2023-03-06T05:29:22.818Z,6.43
2023-03-06T05:29:43.459Z,6.43
2023-03-06T05:30:10.948Z,6.43
2023-03-06T05:30:36.713Z,6.43
2023-03-06T05:30:58.981Z,6.43
2023-03-06T05:31:30.195Z,6.27
2023-03-06T05:32:02.848Z,6.27
2023-03-06T05:32:35.655Z,6.27
2023-03-06T05:33:06.317Z,6.43
2023-03-06T05:33:22.811Z,6.27
2023-03-06T05:33:43.490Z,6.27
2023-03-06T05:34:09.969Z,6.27
2023-03-06T05:34:36.655Z,6.43
2023-03-06T05:34:58.155Z,6.27
2023-03-06T05:35:30.514Z,6.11
2023-03-06T05:36:02.577Z,6.27
2023-03-06T05:36:34.465Z,6.27
2023-03-06T05:37:06.228Z,6.27
2023-03-06T05:37:22.925Z,6.27
2023-03-06T05:37:43.453Z,6.43
2023-03-06T05:38:09.988Z,6.68
2023-03-06T05:38:37.335Z,6.68
2023-03-06T05:38:58.250Z,6.68
2023-03-06T05:39:30.085Z,6.68
2023-03-06T05:40:04.175Z,7.08
2023-03-06T05:40:34.274Z,7.08
2023-03-06T05:41:06.532Z,6.68
2023-03-06T05:41:23.045Z,6.43
2023-03-06T05:41:43.431Z,6.43
2023-03-06T05:42:09.972Z,6.43
2023-03-06T05:42:36.641Z,6.43
2023-03-06T05:42:58.386Z,6.27
2023-03-06T05:43:30.111Z,6.27
2023-03-06T05:44:02.596Z,6.43
2023-03-06T05:44:34.249Z,6.43
2023-03-06T05:45:07.650Z,6.27
2023-03-06T05:45:22.982Z,6.11
2023-03-06T05:45:43.945Z,6.11
2023-03-06T05:46:10.037Z,6.11
2023-03-06T05:46:36.552Z,6.11
2023-03-06T05:46:58.222Z,6.11
2023-03-06T05:47:30.139Z,5.95
2023-03-06T05:48:02.980Z,5.79
2023-03-06T05:48:34.382Z,5.47
2023-03-06T05:49:06.302Z,5.06
2023-03-06T05:49:23.009Z,5.06
2023-03-06T05:49:43.516Z,4.82
2023-03-06T05:50:10.588Z,4.66
2023-03-06T05:50:37.074Z,4.50
2023-03-06T05:50:58.616Z,4.50
2023-03-06T05:51:30.277Z,4.50
2023-03-06T05:52:02.683Z,4.18
2023-03-06T05:52:34.332Z,4.02
2023-03-06T05:53:06.526Z,4.02
2023-03-06T05:53:23.232Z,4.02
2023-03-06T05:53:44.214Z,4.02
2023-03-06T05:54:10.218Z,3.78
2023-03-06T05:54:36.565Z,3.78
2023-03-06T05:54:58.405Z,3.78
2023-03-06T05:55:30.703Z,3.78
2023-03-06T05:56:02.834Z,4.02
2023-03-06T05:56:34.380Z,3.78
2023-03-06T05:57:06.651Z,3.78
2023-03-06T05:57:23.222Z,3.78
2023-03-06T05:57:43.778Z,3.78
2023-03-06T05:58:10.240Z,3.54
2023-03-06T05:58:36.871Z,3.54
2023-03-06T05:58:58.425Z,3.54
2023-03-06T05:59:30.352Z,3.54
2023-03-06T06:00:04.605Z,3.54
2023-03-06T06:00:34.414Z,3.54
2023-03-06T06:01:06.955Z,3.54
2023-03-06T06:01:23.303Z,3.54
2023-03-06T06:01:43.786Z,3.78
2023-03-06T06:02:10.203Z,3.78
2023-03-06T06:02:37.089Z,3.78
2023-03-06T06:02:58.403Z,4.02
2023-03-06T06:03:30.399Z,4.02
2023-03-06T06:04:02.637Z,4.02
2023-03-06T06:04:34.378Z,4.02
2023-03-06T06:05:07.349Z,4.02
2023-03-06T06:05:23.185Z,4.02
2023-03-06T06:05:44.021Z,3.78
2023-03-06T06:06:10.206Z,3.78
2023-03-06T06:06:37.003Z,3.78
2023-03-06T06:06:58.675Z,3.78
2023-03-06T06:07:30.349Z,3.54
2023-03-06T06:08:02.876Z,3.54
2023-03-06T06:08:34.512Z,3.54
2023-03-06T06:09:06.480Z,3.54
2023-03-06T06:09:23.091Z,3.54
2023-03-06T06:09:43.665Z,3.54
2023-03-06T06:10:10.775Z,3.54
2023-03-06T06:10:36.905Z,3.54
2023-03-06T06:10:58.746Z,3.54
2023-03-06T06:11:30.383Z,3.54
2023-03-06T06:12:03.014Z,3.54
2023-03-06T06:12:34.467Z,3.54
2023-03-06T06:13:06.486Z,3.54
2023-03-06T06:13:23.019Z,3.54
2023-03-06T06:13:43.642Z,3.54
2023-03-06T06:14:10.412Z,3.54
2023-03-06T06:14:37.746Z,3.54
2023-03-06T06:14:58.456Z,3.54
2023-03-06T06:15:31.196Z,3.54